Davis Savalnieks

首席球探 - Skonto
2 七月 2028
星期日
處理

性格

適應力 (20) 野心 (17) 爭議性 (20) 忠誠度 (6) 抗壓 (3) 職業素養 (9) 體育精神 (2) 性情 (14)

個人檔案

執教風格 民主型
教練證照 國家A級
決心 4
人員管理 10
激勵 8
紀律 5
工作滿意度
100%
疲勞度
0%
職務 首席球探
薪資 29.4K 每週
合約 14.03.2029

性能

行為 良好
訓練效果
34%
球員發展
15%
傷病預防
45%
戰術執行
20%

近期事件

参加了招募会议 刚刚
参加了招募会议 7天前
推荐了转会目标 7天前
推荐了转会目标 7天前
参加了招募会议 14天前
推荐了转会目标 14天前
推荐了转会目标 14天前
推荐了转会目标 21天前

正在监控

174
球員 俱樂部 狀態 能力 信心 已观察 最后观察 最新投票
Roberts Laizans Ventspils 谈判中 69 / 78 72% 1 02.06.2028 -
Omar Khedr Gillingham 活跃 110 / 114 40% 1 31.05.2028 -
Mikhail Ignatov Sochi 活跃 115 / 123 40% 1 31.05.2028 -
Luke Alker Metta/LU 活跃 78 / 83 52% 1 / 1m 05.04.2028 -
Janis Vanins Daugavpils 活跃 61 / 66 30% 1 / 1m 05.04.2028 -
Beknaz Almazbekov Liepaja 活跃 104 / 110 69% 1 02.01.2028 赞成
Juan Sebastián Herrera Deportivo La Guaira 活跃 108 / 103 40% 2 31.12.2027 -
Ramón González Almirante Brown 活跃 126 / 116 40% 2 31.12.2027 -
Ifeanyi Assurance Rangers International 活跃 92 / 87 40% 1 31.12.2027 -
Kirill Danilin Ural 活跃 110 / 104 40% 2 14.12.2027 -
Rodrigo González Mitre 活跃 128 / 113 40% 4 14.12.2027 -
Bryan Teixeira Zalgiris 活跃 112 / 115 40% 2 14.12.2027 -
Juan David Rueda Alianza Petrolera 活跃 116 / 108 40% 2 13.12.2027 -
Manuel Mónaco Sarmiento 活跃 129 / 130 40% 2 13.12.2027 -
Bautista Carboni Defensores Unidos 活跃 119 / 117 40% 1 13.12.2027 -
Nikita Saltykov Chelyabinsk 活跃 118 / 114 40% 1 12.12.2027 -
Oscar Garrido Mitre 活跃 122 / 120 40% 3 11.12.2027 -
Ariel Castellano Alvarado 活跃 98 / 101 40% 1 11.12.2027 -
Franco Vedoya Central Norte 活跃 111 / 123 40% 3 10.12.2027 -
David Veliz Güemes 活跃 106 / 103 40% 1 07.12.2027 -
Santiago Gutiérrez Alvarado 活跃 106 / 109 40% 2 06.12.2027 -
Brian Farioli Estudiantes 活跃 105 / 119 40% 2 06.12.2027 -
Alexandr Lomovitskiy Torpedo-BelAZ 活跃 118 / 106 40% 1 06.12.2027 -
Alexey Antilevskiy Slavia Mozyr 活跃 89 / 93 40% 4 28.11.2027 -
Kirill Tsepenkov Dnepr Mogilev 活跃 95 / 100 40% 2 24.11.2027 -
Giorgi Arabidze Torpedo Kutaisi 活跃 111 / 123 40% 1 24.11.2027 -
Santiago Camacho Estudiantes 活跃 103 / 99 40% 1 24.11.2027 -
Santiago Sala Güemes 活跃 112 / 111 40% 2 23.11.2027 -
Matías Bergara Nueva Chicago 活跃 110 / 116 40% 2 23.11.2027 -
Brayan Palmezano Deportivo Tachira 活跃 100 / 108 40% 3 22.11.2027 -
Guljigit Borubaev Neman 活跃 107 / 99 40% 1 22.11.2027 -
Tomás Porra Barracas Central 活跃 130 / 130 40% 2 21.11.2027 -
Nicolás Retamar Ferro Carril Oeste 活跃 111 / 111 40% 1 21.11.2027 -
Renzo Reynaga Patronato 活跃 109 / 106 40% 1 20.11.2027 -
Franco Ayunta Temperley 活跃 123 / 116 40% 2 19.11.2027 -
Santiago Valenzuela Chaco For Ever 活跃 110 / 111 40% 1 19.11.2027 -
Lautaro Disanto Defensores Unidos 活跃 126 / 102 40% 1 17.11.2027 -
Matías Viguet Maipú 活跃 117 / 101 40% 2 04.11.2027 -
Alejo Dramisino Atlanta 活跃 110 / 119 40% 1 03.11.2027 -
Radivoj Bosić Vitebsk 活跃 119 / 107 40% 1 03.11.2027 -
Federico Versaci Talleres 活跃 104 / 110 40% 3 02.11.2027 -
Milton Gerez Güemes 活跃 111 / 113 40% 1 02.11.2027 -
Alexandr Ksenofontov Minsk 活跃 92 / 88 40% 1 01.11.2027 -
Yegor Kortsov Dinamo Brest 活跃 105 / 114 40% 1 06.10.2027 -
Didier Dawson Envigado 活跃 108 / 103 40% 2 05.10.2027 -
Matías Machado Racing 活跃 120 / 109 40% 1 04.10.2027 -
José Barreto Quilmes 活跃 111 / 117 40% 1 04.10.2027 -
Gianluca Pugliese Güemes 活跃 100 / 123 40% 2 16.09.2027 -
Brian Orosco Godoy Cruz 活跃 113 / 113 40% 1 16.09.2027 -
Shariff Musa Gor Mahia 活跃 91 / 96 40% 1 15.09.2027 -
Moutir Chajia Suduva 活跃 111 / 106 40% 1 15.09.2027 -
Denis Grechikho Dinamo Brest 活跃 92 / 97 40% 1 11.09.2027 -
Augusto Berrondo Tristán Suárez 活跃 106 / 121 40% 2 10.09.2027 -
Fawaz Abdullahi Dinamo Minsk 活跃 108 / 102 40% 1 10.09.2027 -
César Magallan Estudiantes de Merida 活跃 107 / 106 40% 2 09.09.2027 -
Maximiliano Rueda Patronato 活跃 113 / 103 40% 1 09.09.2027 -
Braian Aranda Agropecuario Argentino 活跃 102 / 127 40% 1 08.09.2027 -
Enzo Trinidad Colegiales 活跃 102 / 112 40% 1 07.09.2027 -
Augustine Nwaorisa Enyimba 活跃 92 / 106 40% 1 07.09.2027 -
Lautaro Lusnig Deportivo Tachira 活跃 121 / 105 40% 1 06.09.2027 -
Joshua Nyatini Kakamega Homeboyz 活跃 88 / 96 40% 1 06.09.2027 -
Patricio Moyano Defensores 活跃 131 / 128 40% 1 06.09.2027 -
Lander Astiazarán Real Sociedad 活跃 103 / 116 40% 1 16.08.2027 -
Pedro Justiniano Giugliano 活跃 103 / 107 40% 1 19.07.2027 -
Brando Moruzzi Cittadella 活跃 97 / 101 40% 1 19.07.2027 -
Igor Konovalov Chernomorets 活跃 95 / 94 40% 2 14.07.2027 -
Lorenzo Carissoni Padova 活跃 131 / 129 40% 1 14.07.2027 -
Danila Vedernikov Orenburg 活跃 107 / 101 40% 5 12.07.2027 -
Artem Meschaninov Rodina 活跃 112 / 101 40% 2 12.07.2027 -
Kamil Ibragimov Volga 活跃 94 / 91 40% 3 11.07.2027 -
Bojan Roganović Torpedo Moscow 活跃 114 / 104 40% 2 11.07.2027 -
Konstantin Kovalev Volga 活跃 105 / 97 40% 3 10.07.2027 -
Stefan Lončar Akron 活跃 118 / 123 40% 3 07.07.2027 -
Robert Mejía Orenburg 活跃 118 / 116 40% 5 06.07.2027 -
Gleb Shevchenko Torpedo Moscow 活跃 113 / 113 40% 2 05.07.2027 -
Daniil Penchikov Arsenal Tula 活跃 105 / 108 40% 4 05.07.2027 -
Konstantin Kertanov Chelyabinsk 活跃 97 / 98 40% 2 04.07.2027 -
Vasily Cherov Ufa 活跃 110 / 101 40% 1 04.07.2027 -
Maxime Leverbe Vicenza 活跃 109 / 123 40% 1 04.07.2027 -
Pavel Maslov Chaika 活跃 105 / 103 40% 2 02.07.2027 -
Maxime Sivis Orenburg 活跃 123 / 115 40% 4 01.07.2027 -
Darko Todorović Fakel 活跃 121 / 112 40% 2 01.07.2027 -
Iker Pozo Rodina 活跃 118 / 116 40% 2 01.07.2027 -
Ruslan Baitukov Chelyabinsk 活跃 103 / 94 40% 3 30.06.2027 -
Edgardo Fariña Nizhniy Novgorod 活跃 111 / 113 40% 3 26.06.2027 -
Islamzhan Nasyrov Ryazan 活跃 94 / 92 40% 3 26.06.2027 -
Mitja Križan Rodina 活跃 113 / 108 40% 1 23.06.2027 -
Marat Bokoev Akron 活跃 126 / 115 40% 1 23.06.2027 -
Mehdi Dorval Catanzaro 活跃 126 / 133 40% 1 22.06.2027 -
Andrea Chukanov Yenisey 活跃 103 / 99 40% 1 22.06.2027 -
Andrea Meroni Mantova 活跃 134 / 129 40% 1 21.06.2027 -
Vladislav Kamilov Ufa 活跃 101 / 104 40% 1 21.06.2027 -
Idar Shumakhov Dinamo Makhachkala 活跃 111 / 106 40% 2 14.06.2027 -
Danila Sukhomlinov Neftekhimik 活跃 102 / 91 40% 1 10.06.2027 -
Garrik Levin Chelyabinsk 活跃 103 / 97 40% 2 08.06.2027 -
Khetag Khosonov Akron 活跃 119 / 116 40% 3 08.06.2027 -
Ilja Agapov Ufa 活跃 121 / 115 40% 2 07.06.2027 -
Víctor Guzmán Sporting CP 活跃 102 / 98 40% 1 04.06.2027 -
Jonathan Okoronkwo Torpedo Moscow 活跃 102 / 108 40% 3 03.06.2027 -
José Balza Deportivo Tachira 活跃 121 / 115 40% 1 03.06.2027 -
Akpan Nsikak-Abong Kun Khalifat 活跃 89 / 90 40% 1 01.06.2027 -
David Sangaré Ryazan 活跃 93 / 96 40% 1 01.06.2027 -
Leo Goglichidze Rodina 活跃 115 / 107 40% 4 31.05.2027 -
Đorđe Pantelić Spartak Kostroma 活跃 113 / 108 40% 3 31.05.2027 -
Pablo García Gijón 活跃 112 / 102 40% 1 31.05.2027 -
Yury Zheleznov Akron 活跃 105 / 105 40% 2 30.05.2027 -
Georgie Gent Barnsley 活跃 108 / 120 40% 3 30.05.2027 -
Vladis Emmersón Yenisey 活跃 100 / 99 40% 1 30.05.2027 -
Ítalo Ural 活跃 113 / 109 40% 1 30.05.2027 -
Andrey Nikitin Neftekhimik 活跃 96 / 88 40% 2 29.05.2027 -
Vyacheslav Grulev Nizhniy Novgorod 活跃 117 / 116 40% 2 23.05.2027 -
Mario Ćurić Torpedo Moscow 活跃 112 / 105 40% 1 22.05.2027 -
Yegor Noskov SKA Khabarovsk 活跃 90 / 104 40% 3 21.05.2027 -
Nikita Yermakov Nizhniy Novgorod 活跃 103 / 103 40% 1 19.05.2027 -
Ramazan Gadjimuradov Chelyabinsk 活跃 104 / 103 40% 1 19.05.2027 -
Denis Fomin SKA Khabarovsk 活跃 89 / 98 40% 1 18.05.2027 -
Kamran Aliev SKA Khabarovsk 活跃 111 / 103 40% 2 16.05.2027 -
David Shavlokhov Chernomorets 活跃 99 / 91 40% 1 14.05.2027 -
Alan Tsaraev Arsenal Tula 活跃 108 / 104 40% 4 13.05.2027 -
Dmitry Vasiljev Orenburg 活跃 111 / 124 40% 3 13.05.2027 -
Vladimir Khubulov Dinamo Makhachkala 活跃 115 / 104 40% 2 10.05.2027 -
Harvey White Stevenage 活跃 115 / 107 40% 1 10.05.2027 -
Danil Lipovoy Ufa 活跃 103 / 102 40% 3 09.05.2027 -
David Kokoev Yenisey 活跃 102 / 102 40% 3 09.05.2027 -
Yegor Danilkin Rotor 活跃 94 / 94 40% 1 04.05.2027 -
Nuri Abdokov Fakel 活跃 101 / 101 40% 1 30.04.2027 -
Alexey Berdnikov Chelyabinsk 活跃 105 / 96 40% 1 29.04.2027 -
Nikita Pechenkin Sokol 活跃 98 / 107 40% 1 29.04.2027 -
Eldar Ćivić Baltika 活跃 126 / 111 40% 3 28.04.2027 -
Krasian Kolev Chernomorets 活跃 97 / 102 40% 1 25.04.2027 -
Vyacheslav Yakimov Fakel 活跃 105 / 109 40% 3 24.04.2027 -
Alexandr Troshechkin Rotor 活跃 111 / 104 40% 2 24.04.2027 -
Ilja Ishkov Ural 活跃 106 / 100 40% 1 24.04.2027 -
Temirkan Sundukov Dinamo Makhachkala 活跃 117 / 107 40% 2 23.04.2027 -
Vladislav Masternoy SKA Khabarovsk 活跃 96 / 105 40% 1 22.04.2027 -
Konstantin Shiltsov Baltika 活跃 100 / 97 40% 1 20.04.2027 -
Andrey Mazurin Yenisey 活跃 95 / 93 40% 1 18.04.2027 -
Ruslan Apekov Torpedo Moscow 活跃 100 / 95 40% 3 17.04.2027 -
Anton Antonov Chernomorets 活跃 97 / 95 40% 1 14.04.2027 -
Alexandr Ektov Nizhniy Novgorod 活跃 114 / 112 40% 2 13.04.2027 -
Igor Shkolik SKA Khabarovsk 活跃 97 / 100 40% 1 13.04.2027 -
Kirill Bozhenov Sokol 活跃 100 / 96 40% 1 07.04.2027 -
Laurenţiu Brănescu Hibernians 活跃 82 / 85 40% 1 02.01.2027 -
Ilja Tuseev Chelyabinsk 活跃 103 / 97 40% 1 02.01.2027 -
Petr Kosarevskiy Sibir 活跃 95 / 93 40% 1 02.01.2027 -
Alexandr Filin Baltika 活跃 106 / 107 40% 2 31.12.2026 -
Maxim Khramtsov Rotor 活跃 91 / 100 40% 1 31.12.2026 -
Daniil Marugin Shinnik 活跃 98 / 96 40% 1 31.12.2026 -
Nikolay Tolstopyatov Neftekhimik 活跃 106 / 105 40% 1 29.12.2026 -
Artem Makarchuk Sochi 活跃 106 / 111 40% 3 28.12.2026 -
Saminu Abdullahi KAMAZ 活跃 108 / 107 40% 3 28.12.2026 -
Alexandr Bem Tyumen 活跃 94 / 94 40% 2 26.12.2026 -
Andrés Alarcón Dinamo Makhachkala 活跃 112 / 113 40% 1 24.12.2026 -
Fahd Moufi Baltika 活跃 117 / 118 40% 2 19.12.2026 -
Alexey Vakulich Arsenal Tula 活跃 101 / 99 40% 1 17.12.2026 -
Nikita Kakkoev Nizhniy Novgorod 活跃 114 / 123 40% 2 16.12.2026 -
Nathan Gassama Baltika 活跃 113 / 115 40% 2 16.12.2026 -
Miloš Brnović Arsenal Tula 活跃 104 / 109 40% 2 15.12.2026 -
Soslan Takulov Arsenal Tula 活跃 92 / 100 40% 3 13.12.2026 -
Ruslan Litvinov Spartak Moscow 活跃 118 / 127 40% 1 13.12.2026 -
Kirill Malyarov Shinnik 活跃 107 / 104 40% 1 09.12.2026 -
Ivan Churikov Sibir 活跃 89 / 95 40% 1 09.12.2026 -
Oleg Krasilnichenko Volga 活跃 85 / 88 40% 1 05.12.2026 -
Soslan Kagermazov Dinamo Makhachkala 活跃 92 / 90 40% 1 04.12.2026 -
Fasson Lokomotiv Moscow 活跃 122 / 109 40% 2 02.12.2026 -
Astemir Abazov Mashuk 活跃 100 / 84 40% 1 27.11.2026 -
Marko Janković Qarabag 活跃 134 / 129 40% 1 24.11.2026 -
Pavel Shakuro Tyumen 活跃 92 / 89 40% 1 22.11.2026 -
Léo Cordeiro Ural 活跃 105 / 118 40% 1 21.11.2026 -
Rodolphe Ekou Liepaja 活跃 82 / 94 65% 1 24.08.2026 赞成
Ignacio Manzanares Belgrano 活跃 92 / 101 40% 1 03.08.2026 -
Timi Ogunniyi Liepaja 活跃 90 / 99 40% 1 03.08.2026 -
Kyle Wootton Stockport County 活跃 130 / 131 40% 1 01.08.2026 -
Tobías Cervera Gimnasia y Esgrima 活跃 107 / 112 40% 1 01.08.2026 -